createdAt,value
2023-04-30T00:00:37.523Z,100538.27
2023-04-30T00:04:36.016Z,100531.82
2023-04-30T00:08:37.056Z,100534.38
2023-04-30T00:12:34.877Z,100530.09
2023-04-30T00:16:36.713Z,100523.71
2023-04-30T00:20:35.159Z,100518.04
2023-04-30T00:24:36.664Z,100520.83
2023-04-30T00:28:35.244Z,100509.11
2023-04-30T00:32:36.793Z,100514.81
2023-04-30T00:36:30.036Z,100513.66
2023-04-30T00:40:20.585Z,100511.94
2023-04-30T00:44:07.331Z,100505.88
2023-04-30T00:47:54.343Z,100502.16
2023-04-30T00:51:41.489Z,100488.70
2023-04-30T00:55:30.178Z,100480.39
2023-04-30T00:59:15.284Z,100478.11
2023-04-30T01:03:00.558Z,100472.95
2023-04-30T01:06:45.763Z,100464.46
2023-04-30T01:10:31.012Z,100458.34
2023-04-30T01:14:16.143Z,100456.52
2023-04-30T01:18:01.247Z,100452.47
2023-04-30T01:21:46.323Z,100456.88
2023-04-30T01:25:38.360Z,100458.16
2023-04-30T01:29:31.974Z,100454.41
2023-04-30T01:33:31.344Z,100444.70
2023-04-30T01:37:26.561Z,100439.45
2023-04-30T01:41:26.189Z,100430.06
2023-04-30T01:45:21.335Z,100428.02
2023-04-30T01:49:21.066Z,100419.98
2023-04-30T01:53:16.813Z,100413.63
2023-04-30T01:57:16.042Z,100409.02
2023-04-30T02:01:11.414Z,100402.30
2023-04-30T02:05:08.539Z,100398.54
2023-04-30T02:08:53.734Z,100389.60
2023-04-30T02:12:38.803Z,100381.64
2023-04-30T02:16:24.258Z,100374.60
2023-04-30T02:20:09.658Z,100371.11
2023-04-30T02:23:54.865Z,100367.30
2023-04-30T02:27:39.939Z,100361.55
2023-04-30T02:31:25.167Z,100357.92
2023-04-30T02:35:16.151Z,100351.15
2023-04-30T02:39:09.329Z,100348.23
2023-04-30T02:43:00.714Z,100341.63
2023-04-30T02:46:56.716Z,100341.73
2023-04-30T02:50:52.608Z,100335.43
2023-04-30T02:54:52.130Z,100324.90
2023-04-30T02:58:47.564Z,100327.52
2023-04-30T03:02:46.893Z,100328.23
2023-04-30T03:06:42.658Z,100325.35
2023-04-30T03:10:43.700Z,100328.58
2023-04-30T03:14:39.651Z,100323.86
2023-04-30T03:18:24.650Z,100320.00
2023-04-30T03:22:09.524Z,100316.91
2023-04-30T03:25:54.480Z,100317.39
2023-04-30T03:29:40.033Z,100307.64
2023-04-30T03:33:25.203Z,100305.48
2023-04-30T03:37:10.346Z,100304.84
2023-04-30T03:40:55.600Z,100308.86
2023-04-30T03:44:46.569Z,100311.88
2023-04-30T03:48:40.040Z,100303.66
2023-04-30T03:52:31.293Z,100306.98
2023-04-30T03:56:26.457Z,100302.77
2023-04-30T04:00:25.648Z,100312.66
2023-04-30T04:04:21.645Z,100312.86
2023-04-30T04:08:21.433Z,100310.77
2023-04-30T04:12:20.734Z,100306.13
2023-04-30T04:16:16.844Z,100308.64
2023-04-30T04:20:16.886Z,100299.48
2023-04-30T04:24:12.809Z,100296.79
2023-04-30T04:28:12.171Z,100296.62
2023-04-30T04:32:08.869Z,100294.22
2023-04-30T04:36:08.753Z,100292.48
2023-04-30T04:40:04.982Z,100296.33
2023-04-30T04:44:04.200Z,100300.84
2023-04-30T04:48:00.005Z,100300.92
2023-04-30T04:52:00.528Z,100298.27
2023-04-30T04:55:55.790Z,100295.81
2023-04-30T04:59:51.823Z,100292.54
2023-04-30T05:03:51.450Z,100282.89
2023-04-30T05:07:47.907Z,100283.24
2023-04-30T05:11:47.369Z,100284.35
2023-04-30T05:15:42.811Z,100296.56
2023-04-30T05:19:42.065Z,100284.74
2023-04-30T05:23:37.764Z,100281.34
2023-04-30T05:27:37.332Z,100287.53
2023-04-30T05:31:33.018Z,100286.45
2023-04-30T05:35:32.510Z,100289.11
2023-04-30T05:39:27.868Z,100289.69
2023-04-30T05:43:27.232Z,100286.38
2023-04-30T05:47:22.832Z,100286.02
2023-04-30T05:51:22.409Z,100289.64
2023-04-30T05:55:18.034Z,100281.64
2023-04-30T05:59:17.590Z,100277.02
2023-04-30T06:03:12.985Z,100272.70
2023-04-30T06:07:12.538Z,100279.48
2023-04-30T06:11:07.810Z,100275.73
2023-04-30T06:15:07.415Z,100270.39
2023-04-30T06:19:02.706Z,100267.05
2023-04-30T06:23:01.958Z,100268.51
2023-04-30T06:26:57.820Z,100264.19
2023-04-30T06:30:57.133Z,100262.27
2023-04-30T06:34:52.967Z,100258.15
2023-04-30T06:38:52.593Z,100256.84
2023-04-30T06:42:47.944Z,100260.91
2023-04-30T06:46:47.669Z,100264.44
2023-04-30T06:50:45.939Z,100261.92
2023-04-30T06:54:45.529Z,100263.25
2023-04-30T06:58:40.853Z,100262.64
2023-04-30T07:02:40.083Z,100264.09
2023-04-30T07:06:44.884Z,100263.27
2023-04-30T07:10:46.730Z,100263.27
2023-04-30T07:14:44.865Z,100261.23
2023-04-30T07:18:45.851Z,100256.78
2023-04-30T07:22:46.803Z,100253.53
2023-04-30T07:26:48.348Z,100250.42
2023-04-30T07:30:46.741Z,100247.42
2023-04-30T07:34:48.444Z,100246.02
2023-04-30T07:38:46.822Z,100244.20
2023-04-30T07:42:48.189Z,100247.27
2023-04-30T07:46:46.921Z,100253.04
2023-04-30T07:50:49.468Z,100253.73
2023-04-30T07:54:48.886Z,100249.93
2023-04-30T07:58:50.366Z,100244.62
2023-04-30T08:02:49.188Z,100244.31
2023-04-30T08:06:51.018Z,100243.09
2023-04-30T08:10:48.878Z,100240.35
2023-04-30T08:14:50.486Z,100235.36
2023-04-30T08:18:49.004Z,100228.36
2023-04-30T08:22:50.367Z,100228.80
2023-04-30T08:26:48.820Z,100230.39
2023-04-30T08:30:50.650Z,100222.86
2023-04-30T08:34:48.803Z,100218.02
2023-04-30T08:38:50.672Z,100216.13
2023-04-30T08:42:49.046Z,100216.45
2023-04-30T08:46:50.815Z,100223.13
2023-04-30T08:50:48.898Z,100220.73
2023-04-30T08:54:46.030Z,100216.52
2023-04-30T08:58:45.572Z,100215.59
2023-04-30T09:02:47.214Z,100207.92
2023-04-30T09:06:43.240Z,100193.80
2023-04-30T09:10:42.517Z,100190.13
2023-04-30T09:14:38.228Z,100189.80
2023-04-30T09:18:37.805Z,100184.96
2023-04-30T09:22:30.935Z,100183.35
2023-04-30T09:26:34.041Z,100182.23
2023-04-30T09:30:29.343Z,100183.61
2023-04-30T09:34:30.025Z,100180.92
2023-04-30T09:38:25.302Z,100184.16
2023-04-30T09:42:24.900Z,100184.89
2023-04-30T09:46:19.571Z,100190.53
2023-04-30T09:50:16.852Z,100180.23
2023-04-30T09:54:16.616Z,100178.98
2023-04-30T09:58:15.791Z,100177.02
2023-04-30T10:02:11.426Z,100177.23
2023-04-30T10:06:10.841Z,100174.64
2023-04-30T10:10:06.076Z,100166.48
2023-04-30T10:14:03.372Z,100163.00
2023-04-30T10:17:56.515Z,100154.77
2023-04-30T10:22:03.115Z,100153.09
2023-04-30T10:25:58.045Z,100155.15
2023-04-30T10:29:57.722Z,100158.13
2023-04-30T10:33:58.309Z,100167.31
2023-04-30T10:37:57.363Z,100174.48
2023-04-30T10:41:50.266Z,100177.42
2023-04-30T10:45:49.351Z,100179.10
2023-04-30T10:49:45.304Z,100172.30
2023-04-30T10:53:45.037Z,100171.91
2023-04-30T10:57:40.332Z,100170.39
2023-04-30T11:01:39.517Z,100173.63
2023-04-30T11:05:44.140Z,100176.42
2023-04-30T11:09:45.802Z,100180.71
2023-04-30T11:13:44.005Z,100186.73
2023-04-30T11:17:45.665Z,100183.11
2023-04-30T11:21:44.089Z,100171.60
2023-04-30T11:25:46.030Z,100173.42
2023-04-30T11:29:44.460Z,100172.97
2023-04-30T11:33:46.187Z,100173.00
2023-04-30T11:37:44.157Z,100166.95
2023-04-30T11:41:45.639Z,100165.84
2023-04-30T11:45:44.109Z,100166.39
2023-04-30T11:49:46.059Z,100172.02
2023-04-30T11:53:43.248Z,100175.45
2023-04-30T11:57:44.585Z,100173.83
2023-04-30T12:01:43.352Z,100175.42
2023-04-30T12:05:45.230Z,100171.08
2023-04-30T12:09:43.152Z,100162.55
2023-04-30T12:13:44.952Z,100164.98
2023-04-30T12:17:43.189Z,100164.33
2023-04-30T12:21:45.204Z,100161.99
2023-04-30T12:25:43.548Z,100163.80
2023-04-30T12:29:45.363Z,100161.91
2023-04-30T12:33:43.343Z,100164.96
2023-04-30T12:37:44.849Z,100162.70
2023-04-30T12:41:43.244Z,100160.83
2023-04-30T12:45:41.396Z,100164.30
2023-04-30T12:49:42.263Z,100162.30
2023-04-30T12:53:46.106Z,100171.73
2023-04-30T12:57:44.409Z,100172.33
2023-04-30T13:01:45.883Z,100169.45
2023-04-30T13:05:44.492Z,100163.52
2023-04-30T13:09:45.954Z,100168.27
2023-04-30T13:13:44.221Z,100174.03
2023-04-30T13:17:46.389Z,100175.29
2023-04-30T13:21:44.425Z,100180.96
2023-04-30T13:25:49.283Z,100188.50
2023-04-30T13:29:49.356Z,100195.22
2023-04-30T13:33:50.947Z,100196.00
2023-04-30T13:37:49.455Z,100193.34
2023-04-30T13:41:51.024Z,100193.55
2023-04-30T13:45:49.493Z,100200.04
2023-04-30T13:49:50.987Z,100198.80
2023-04-30T13:53:49.362Z,100197.27
2023-04-30T13:57:51.205Z,100192.98
2023-04-30T14:01:49.459Z,100193.38
2023-04-30T14:05:51.000Z,100200.35
2023-04-30T14:09:49.560Z,100196.88
2023-04-30T14:13:51.532Z,100203.33
2023-04-30T14:17:49.385Z,100202.31
2023-04-30T14:21:50.904Z,100203.89
2023-04-30T14:25:48.493Z,100206.25
2023-04-30T14:29:54.014Z,100206.77
2023-04-30T14:33:52.358Z,100207.36
2023-04-30T14:37:57.442Z,100203.24
2023-04-30T14:41:53.526Z,100204.80
2023-04-30T14:45:55.038Z,100207.16
2023-04-30T14:49:49.877Z,100203.05
2023-04-30T14:53:49.574Z,100203.46
2023-04-30T14:57:46.628Z,100204.93
2023-04-30T15:01:45.912Z,100208.53
2023-04-30T15:05:44.553Z,100212.67
2023-04-30T15:09:29.820Z,100217.64
2023-04-30T15:13:23.217Z,100222.22
2023-04-30T15:17:21.727Z,100224.48
2023-04-30T15:21:16.412Z,100224.20
2023-04-30T15:25:12.442Z,100220.56
2023-04-30T15:29:10.759Z,100221.27
2023-04-30T15:33:07.661Z,100219.85
2023-04-30T15:36:52.730Z,100227.93
2023-04-30T15:40:37.820Z,100234.44
2023-04-30T15:44:23.065Z,100241.75
2023-04-30T15:48:08.571Z,100243.55
2023-04-30T15:51:53.711Z,100241.90
2023-04-30T15:55:38.833Z,100238.95
2023-04-30T15:59:23.844Z,100243.86
2023-04-30T16:03:15.037Z,100246.77
2023-04-30T16:07:08.438Z,100248.13
2023-04-30T16:10:59.949Z,100247.10
2023-04-30T16:14:56.014Z,100249.19
2023-04-30T16:18:55.564Z,100249.73
2023-04-30T16:22:51.041Z,100258.63
2023-04-30T16:26:50.361Z,100262.19
2023-04-30T16:30:46.018Z,100264.82
2023-04-30T16:34:45.459Z,100273.36
2023-04-30T16:38:41.038Z,100272.19
2023-04-30T16:42:40.653Z,100274.84
2023-04-30T16:46:36.571Z,100284.55
2023-04-30T16:50:36.178Z,100288.56
2023-04-30T16:54:31.899Z,100297.53
2023-04-30T16:58:31.172Z,100296.23
2023-04-30T17:02:27.086Z,100303.62
2023-04-30T17:06:26.504Z,100301.71
2023-04-30T17:10:21.977Z,100306.30
2023-04-30T17:14:21.467Z,100307.27
2023-04-30T17:18:17.090Z,100303.23
2023-04-30T17:22:16.620Z,100305.80
2023-04-30T17:26:11.872Z,100306.39
2023-04-30T17:30:10.942Z,100301.45
2023-04-30T17:34:05.913Z,100311.38
2023-04-30T17:38:05.115Z,100308.83
2023-04-30T17:42:00.914Z,100304.45
2023-04-30T17:46:00.174Z,100307.42
2023-04-30T17:49:56.074Z,100316.58
2023-04-30T17:53:55.699Z,100322.27
2023-04-30T17:57:51.068Z,100326.21
2023-04-30T18:01:50.868Z,100333.44
2023-04-30T18:05:46.033Z,100334.52
2023-04-30T18:09:45.724Z,100334.39
2023-04-30T18:13:41.293Z,100337.41
2023-04-30T18:17:40.704Z,100342.88
2023-04-30T18:21:36.120Z,100345.25
2023-04-30T18:25:35.625Z,100349.10
2023-04-30T18:29:31.105Z,100344.77
2023-04-30T18:33:30.928Z,100347.49
2023-04-30T18:37:27.878Z,100345.17
2023-04-30T18:41:27.808Z,100347.59
2023-04-30T18:45:24.686Z,100337.92
2023-04-30T18:49:24.858Z,100340.95
2023-04-30T18:53:21.856Z,100337.50
2023-04-30T18:57:22.122Z,100342.13
2023-04-30T19:01:19.689Z,100347.19
2023-04-30T19:05:19.825Z,100351.33
2023-04-30T19:09:16.881Z,100353.31
2023-04-30T19:13:19.873Z,100356.90
2023-04-30T19:17:17.583Z,100358.54
2023-04-30T19:21:17.905Z,100354.98
2023-04-30T19:25:15.014Z,100355.23
2023-04-30T19:29:14.876Z,100358.24
2023-04-30T19:33:12.085Z,100358.57
2023-04-30T19:37:11.905Z,100358.88
2023-04-30T19:41:08.848Z,100357.02
2023-04-30T19:45:09.006Z,100357.98
2023-04-30T19:49:06.204Z,100357.95
2023-04-30T19:53:06.070Z,100358.36
2023-04-30T19:57:03.725Z,100352.90
2023-04-30T20:01:03.923Z,100359.91
2023-04-30T20:05:00.900Z,100357.73
2023-04-30T20:09:01.192Z,100355.80
2023-04-30T20:12:57.784Z,100357.00
2023-04-30T20:16:58.224Z,100359.48
2023-04-30T20:20:55.079Z,100351.98
2023-04-30T20:24:55.021Z,100355.83
2023-04-30T20:28:52.032Z,100346.09
2023-04-30T20:32:52.296Z,100346.70
2023-04-30T20:36:49.829Z,100347.02
2023-04-30T20:40:49.204Z,100342.82
2023-04-30T20:44:44.449Z,100348.30
2023-04-30T20:48:43.763Z,100346.38
2023-04-30T20:52:39.334Z,100341.47
2023-04-30T20:56:43.343Z,100337.13
2023-04-30T21:00:39.649Z,100338.11
2023-04-30T21:04:39.035Z,100337.97
2023-04-30T21:08:34.569Z,100329.52
2023-04-30T21:12:33.857Z,100337.31
2023-04-30T21:16:29.422Z,100332.86
2023-04-30T21:20:26.350Z,100335.63
2023-04-30T21:24:26.094Z,100332.06
2023-04-30T21:28:25.291Z,100330.41
2023-04-30T21:32:21.268Z,100328.04
2023-04-30T21:36:20.456Z,100329.23
2023-04-30T21:40:16.537Z,100329.39
2023-04-30T21:44:14.792Z,100337.30
2023-04-30T21:48:08.008Z,100337.87
2023-04-30T21:52:11.228Z,100341.63
2023-04-30T21:56:06.632Z,100340.54
2023-04-30T22:00:06.115Z,100344.82
2023-04-30T22:04:02.043Z,100347.18
2023-04-30T22:08:01.423Z,100344.16
2023-04-30T22:11:57.601Z,100344.58
2023-04-30T22:15:54.909Z,100346.48
2023-04-30T22:19:55.114Z,100344.23
2023-04-30T22:23:54.521Z,100338.91
2023-04-30T22:27:50.789Z,100345.85
2023-04-30T22:31:50.146Z,100346.28
2023-04-30T22:35:45.357Z,100350.41
2023-04-30T22:39:42.473Z,100353.12
2023-04-30T22:43:35.765Z,100361.23
2023-04-30T22:47:39.030Z,100361.68
2023-04-30T22:51:34.758Z,100367.02
2023-04-30T22:55:34.214Z,100369.98
2023-04-30T22:59:29.502Z,100375.84
2023-04-30T23:03:28.488Z,100383.38
2023-04-30T23:07:26.482Z,100392.23
2023-04-30T23:11:28.468Z,100391.25
2023-04-30T23:15:26.425Z,100393.79
2023-04-30T23:19:27.149Z,100389.95
2023-04-30T23:23:25.410Z,100393.46
2023-04-30T23:27:26.446Z,100384.38
2023-04-30T23:31:24.491Z,100384.17
2023-04-30T23:35:26.419Z,100382.79
2023-04-30T23:39:24.656Z,100383.55
2023-04-30T23:43:26.276Z,100379.16
2023-04-30T23:47:24.504Z,100377.95
2023-04-30T23:51:26.378Z,100377.20
2023-04-30T23:55:24.326Z,100379.88
2023-04-30T23:59:25.821Z,100378.88
